Main page
METAR-TAF:

METAR-TAF

Airports :

Omak Airport

Omak, Washington, United States

latitude: 48-27-51N, longitude: 119-31-05W, elevation: 1302 ft

Current weather observation

The report was made 1 hour and 1 minutes ago, at 02:53 UTC
Wind 7 mph from the North/Northwest
Temperature 75°F
Humidity 36%
Pressure 29.96 in. Hg
Visibility: 10 miles
Clear sky

METAR: KOMK 210253Z AUTO 34006KT 10SM CLR 24/08 A2996 RMK AO2 SLP138 T02440083 56003 $

Time: 20:54 (03:54 UTC)


TAF: missing

Weather observations and forecasts of more than 4000 airports (METAR and TAF reports).

The available stations are represented by yellow and red dots on the map.

Hover mouse over dot to see the name of the station.

Then click to see weather observations and forecasts.

To change the map : click on the green buttons with a black cross to zoom in, on the green button with a dash to zoom out, or on the green arrows for adjacent maps.


METAR-TAF: